Time;durP1;ratioP1;P1;durP2;ratioP2;P2;SDS_P1;SDS_P2;PMS_P1;PMS_P2;Temp;Humidity;BMP_temperature;BMP_pressure;BME280_temperature;BME280_humidity;BME280_pressure;Samples;Min_cycle;Max_cycle;Signal;HPM_P1;HPM_P2
2022/08/01 00:01:37;;;;;;;5.68;2.42;;;18.90;99.90;;;;;;4993241;28;20034;-71
2022/08/01 00:04:03;;;;;;;5.55;2.72;;;18.90;99.90;;;;;;4995607;28;20506;-71
2022/08/01 00:06:29;;;;;;;5.72;2.70;;;18.90;99.90;;;;;;5003548;28;20052;-71
2022/08/01 00:08:55;;;;;;;7.82;2.83;;;18.90;99.90;;;;;;4996239;28;20033;-72
2022/08/01 00:11:20;;;;;;;7.88;2.85;;;18.80;99.90;;;;;;4992931;28;20031;-70
2022/08/01 00:13:46;;;;;;;7.35;2.70;;;18.90;99.90;;;;;;4993877;28;20034;-71
2022/08/01 00:16:12;;;;;;;5.55;2.85;;;18.90;99.90;;;;;;4992856;28;20038;-71
2022/08/01 00:18:38;;;;;;;7.50;3.00;;;18.80;99.90;;;;;;4995095;28;20035;-71
2022/08/01 00:21:04;;;;;;;5.95;2.53;;;18.80;99.90;;;;;;4995512;28;20100;-71
2022/08/01 00:23:31;;;;;;;6.68;2.50;;;18.80;99.90;;;;;;4993634;28;20441;-71
2022/08/01 00:25:57;;;;;;;6.07;2.78;;;18.90;99.90;;;;;;5000837;28;20096;-71
2022/08/01 00:28:22;;;;;;;6.32;2.88;;;18.80;99.90;;;;;;4991822;28;20046;-71
2022/08/01 00:30:48;;;;;;;8.13;3.10;;;18.80;99.90;;;;;;4995582;28;20450;-71
2022/08/01 00:33:13;;;;;;;7.97;3.35;;;18.90;99.90;;;;;;4993765;28;20057;-72
2022/08/01 00:35:39;;;;;;;7.00;2.80;;;18.80;99.90;;;;;;4994782;28;20037;-72
2022/08/01 00:38:04;;;;;;;6.45;2.78;;;18.80;99.90;;;;;;4995079;28;20103;-70
2022/08/01 00:40:30;;;;;;;7.95;2.90;;;18.80;99.90;;;;;;4995124;28;20081;-71
2022/08/01 00:42:55;;;;;;;8.52;3.13;;;18.90;99.90;;;;;;4994290;28;20030;-71
2022/08/01 00:45:21;;;;;;;5.95;2.85;;;18.80;99.90;;;;;;4995972;28;20073;-72
2022/08/01 00:47:47;;;;;;;7.50;2.63;;;18.80;99.90;;;;;;4993932;28;20039;-71
2022/08/01 00:50:13;;;;;;;6.82;2.45;;;18.80;99.90;;;;;;4995230;28;20041;-71
2022/08/01 00:52:40;;;;;;;6.25;2.40;;;18.80;99.90;;;;;;4988325;28;20042;-72
2022/08/01 00:55:06;;;;;;;7.53;3.25;;;18.80;99.90;;;;;;4994764;28;20054;-71
2022/08/01 00:57:32;;;;;;;9.73;3.40;;;18.80;99.90;;;;;;4993638;28;20053;-72
2022/08/01 00:59:58;;;;;;;7.50;3.42;;;18.80;99.90;;;;;;4992545;28;20410;-71
2022/08/01 01:02:24;;;;;;;7.35;3.35;;;18.70;99.90;;;;;;4995180;28;20038;-72
2022/08/01 01:04:49;;;;;;;12.98;3.55;;;18.70;99.90;;;;;;4991221;28;20041;-69
2022/08/01 01:07:35;;;;;;;7.20;3.40;;;18.80;99.90;;;;;;5002017;28;20129;-71
2022/08/01 01:10:14;;;;;;;8.73;3.65;;;18.80;99.90;;;;;;4994488;28;20195;-71
2022/08/01 01:12:51;;;;;;;8.50;3.57;;;18.70;99.90;;;;;;4992386;28;20042;-70
2022/08/01 01:15:27;;;;;;;8.52;3.30;;;18.70;99.90;;;;;;4997300;28;20755;-71
2022/08/01 01:18:32;;;;;;;7.90;3.60;;;18.70;99.90;;;;;;4996677;28;20088;-71
2022/08/01 01:21:17;;;;;;;9.38;3.75;;;18.70;99.90;;;;;;4956243;28;20041;-70
2022/08/01 01:24:26;;;;;;;8.65;4.30;;;18.70;99.90;;;;;;4994886;28;20530;-70
2022/08/01 01:27:07;;;;;;;10.82;3.50;;;18.70;99.90;;;;;;4999042;28;20042;-70
2022/08/01 01:29:41;;;;;;;7.57;3.40;;;18.70;99.90;;;;;;5013637;28;20065;-70
2022/08/01 01:32:15;;;;;;;9.35;3.85;;;18.70;99.90;;;;;;5000540;28;20037;-71
2022/08/01 01:34:45;;;;;;;9.75;4.05;;;18.70;99.90;;;;;;4997215;28;20034;-69
2022/08/01 01:37:21;;;;;;;9.43;4.47;;;18.60;99.90;;;;;;5001661;28;20034;-71
2022/08/01 01:39:50;;;;;;;11.15;4.00;;;18.70;99.90;;;;;;5002395;28;20042;-71
2022/08/01 01:42:17;;;;;;;9.65;4.07;;;18.70;99.90;;;;;;5008507;28;20074;-70
2022/08/01 01:44:44;;;;;;;8.20;3.35;;;18.70;99.90;;;;;;4997498;28;20649;-70
2022/08/01 01:47:12;;;;;;;9.25;4.15;;;18.60;99.90;;;;;;4995731;28;20034;-69
2022/08/01 01:49:41;;;;;;;9.73;3.67;;;18.60;99.90;;;;;;5001109;28;20724;-71
2022/08/01 01:52:08;;;;;;;6.68;3.05;;;18.60;99.90;;;;;;4997124;28;20494;-71
2022/08/01 01:54:39;;;;;;;11.23;2.75;;;18.60;99.90;;;;;;4997318;28;20537;-71
2022/08/01 01:57:08;;;;;;;7.80;3.00;;;18.60;99.90;;;;;;4996984;28;20111;-71
2022/08/01 01:59:36;;;;;;;6.47;2.47;;;18.60;99.90;;;;;;4999071;28;20049;-71
2022/08/01 02:02:04;;;;;;;7.10;2.35;;;18.60;99.90;;;;;;4997718;28;20029;-71
2022/08/01 02:04:32;;;;;;;6.82;1.83;;;18.60;99.90;;;;;;4998337;28;20038;-71
2022/08/01 02:07:00;;;;;;;6.45;1.88;;;18.50;99.90;;;;;;5003847;28;20033;-70
2022/08/01 02:09:27;;;;;;;5.10;2.05;;;18.50;99.90;;;;;;4998751;28;20042;-71
2022/08/01 02:11:55;;;;;;;3.22;1.67;;;18.50;99.90;;;;;;4996564;28;20107;-69
2022/08/01 02:14:23;;;;;;;4.03;1.73;;;18.50;99.90;;;;;;4996408;28;20026;-71
2022/08/01 02:16:50;;;;;;;5.95;1.75;;;18.50;99.90;;;;;;5000101;28;20033;-70
2022/08/01 02:19:18;;;;;;;7.88;2.00;;;18.50;99.90;;;;;;4998485;28;20062;-71
2022/08/01 02:21:59;;;;;;;5.72;2.30;;;18.50;99.90;;;;;;4999321;28;20473;-70
2022/08/01 02:24:39;;;;;;;4.90;1.85;;;18.50;99.90;;;;;;4997279;28;20043;-71
2022/08/01 02:27:12;;;;;;;4.10;1.88;;;18.50;99.90;;;;;;5000672;28;20039;-71
2022/08/01 02:29:49;;;;;;;6.72;2.30;;;18.50;99.90;;;;;;4999324;28;20041;-68
2022/08/01 02:32:23;;;;;;;7.35;1.80;;;18.50;99.90;;;;;;5000275;28;20120;-69
2022/08/01 02:34:50;;;;;;;5.13;1.45;;;18.50;99.90;;;;;;4994330;28;20565;-70
2022/08/01 02:37:18;;;;;;;6.18;1.80;;;18.40;99.90;;;;;;4998037;28;20044;-71
2022/08/01 02:39:47;;;;;;;4.35;2.35;;;18.40;99.90;;;;;;5001431;28;20103;-70
2022/08/01 02:42:15;;;;;;;3.25;1.67;;;18.40;99.90;;;;;;5007758;28;20124;-71
2022/08/01 02:44:43;;;;;;;7.28;1.67;;;18.40;99.90;;;;;;4994601;28;20038;-71
2022/08/01 02:47:10;;;;;;;3.40;1.70;;;18.40;99.90;;;;;;4999705;28;20156;-72
2022/08/01 02:49:39;;;;;;;3.28;1.73;;;18.40;99.90;;;;;;4995815;28;20036;-71
2022/08/01 02:52:09;;;;;;;6.25;1.67;;;18.40;99.90;;;;;;5002345;28;20026;-71
2022/08/01 02:54:37;;;;;;;2.92;1.52;;;18.40;99.90;;;;;;4998556;28;20031;-70
2022/08/01 02:57:05;;;;;;;3.75;1.65;;;18.30;99.90;;;;;;4999440;28;20029;-71
2022/08/01 02:59:33;;;;;;;4.10;1.25;;;18.30;99.90;;;;;;4997444;28;20046;-70
2022/08/01 03:02:01;;;;;;;3.80;1.67;;;18.30;99.90;;;;;;4996968;28;20503;-70
2022/08/01 03:04:27;;;;;;;3.08;1.42;;;18.30;99.90;;;;;;5001127;28;20034;-71
2022/08/01 03:06:57;;;;;;;3.15;1.70;;;18.30;99.90;;;;;;5002836;28;20045;-68
2022/08/01 03:09:23;;;;;;;2.67;1.50;;;18.30;99.90;;;;;;4998440;28;20045;-69
2022/08/01 03:11:50;;;;;;;7.05;2.08;;;18.30;99.90;;;;;;4995854;28;20034;-70
2022/08/01 03:14:19;;;;;;;5.53;1.35;;;18.30;99.90;;;;;;4996483;28;20086;-71
2022/08/01 03:16:46;;;;;;;3.78;1.50;;;18.30;99.90;;;;;;4998204;28;20446;-70
2022/08/01 03:19:16;;;;;;;3.40;1.70;;;18.30;99.90;;;;;;4996361;28;20060;-69
2022/08/01 03:21:43;;;;;;;3.25;1.60;;;18.30;99.90;;;;;;4998535;28;20036;-68
2022/08/01 03:24:11;;;;;;;5.10;2.22;;;18.30;99.90;;;;;;5003765;28;20045;-70
2022/08/01 03:26:39;;;;;;;4.70;2.03;;;18.20;99.90;;;;;;5009561;28;20061;-70
2022/08/01 03:29:09;;;;;;;7.68;2.03;;;18.20;99.90;;;;;;5007289;28;20030;-71
2022/08/01 03:31:35;;;;;;;;;;;18.10;99.90;;;;;;5004298;28;20414;-71
2022/08/01 03:34:01;;;;;;;6.68;2.15;;;18.20;99.90;;;;;;4995957;28;19953;-71
2022/08/01 03:36:29;;;;;;;5.90;2.47;;;18.10;99.90;;;;;;4998928;28;20613;-70
2022/08/01 03:38:59;;;;;;;4.38;2.30;;;18.10;99.90;;;;;;4994878;28;20053;-71
2022/08/01 03:41:28;;;;;;;3.00;2.20;;;18.10;99.90;;;;;;4998204;28;20034;-71
2022/08/01 03:44:00;;;;;;;3.78;2.10;;;18.10;99.90;;;;;;4995878;28;20087;-70
2022/08/01 03:46:35;;;;;;;5.18;1.90;;;18.10;99.90;;;;;;5003325;28;20855;-71
2022/08/01 03:49:05;;;;;;;3.97;1.90;;;18.00;99.90;;;;;;4999790;28;20053;-69
2022/08/01 03:51:31;;;;;;;;;;;18.00;99.90;;;;;;5004597;28;20034;-71
2022/08/01 03:54:00;;;;;;;5.50;2.50;;;17.90;99.90;;;;;;4994969;28;19972;-71
2022/08/01 03:56:26;;;;;;;5.55;2.20;;;17.90;99.90;;;;;;4997791;28;20038;-71
2022/08/01 03:58:53;;;;;;;7.30;2.08;;;17.90;99.90;;;;;;4995838;28;20037;-71
2022/08/01 04:01:19;;;;;;;3.78;2.30;;;17.90;99.90;;;;;;4996621;28;20525;-72
2022/08/01 04:03:45;;;;;;;3.85;2.33;;;17.90;99.90;;;;;;4995881;28;20105;-70
2022/08/01 04:06:13;;;;;;;6.95;2.30;;;17.80;99.90;;;;;;4997692;28;20105;-71
2022/08/01 04:08:41;;;;;;;9.38;1.80;;;17.80;99.90;;;;;;4996604;28;20025;-71
2022/08/01 04:11:08;;;;;;;4.35;2.22;;;17.70;99.90;;;;;;4994826;28;20430;-71
2022/08/01 04:13:34;;;;;;;3.40;1.95;;;17.70;99.90;;;;;;4997228;28;20029;-70
2022/08/01 04:16:00;;;;;;;5.15;2.38;;;17.70;99.90;;;;;;4992698;28;20034;-71
2022/08/01 04:18:25;;;;;;;6.72;2.30;;;17.70;99.90;;;;;;4997421;28;20113;-70
2022/08/01 04:20:51;;;;;;;4.95;2.47;;;17.60;99.90;;;;;;4995464;28;20227;-70
2022/08/01 04:23:22;;;;;;;4.18;2.50;;;17.60;99.90;;;;;;4995637;28;20509;-71
2022/08/01 04:25:50;;;;;;;7.82;2.08;;;17.60;99.90;;;;;;5003601;28;20091;-70
2022/08/01 04:28:16;;;;;;;6.63;2.38;;;17.70;99.90;;;;;;4996659;28;20022;-69
2022/08/01 04:30:46;;;;;;;9.10;2.58;;;17.70;99.90;;;;;;4997024;28;20038;-72
2022/08/01 04:33:16;;;;;;;7.63;2.30;;;17.80;99.90;;;;;;4996424;28;20029;-71
2022/08/01 04:35:48;;;;;;;8.70;2.42;;;17.80;99.90;;;;;;4994050;28;20042;-72
2022/08/01 04:38:19;;;;;;;6.22;2.78;;;17.90;99.90;;;;;;4993553;28;20590;-70
2022/08/01 04:40:48;;;;;;;7.45;2.08;;;17.90;99.90;;;;;;4994632;28;20040;-69
2022/08/01 04:43:14;;;;;;;4.63;2.22;;;18.00;99.90;;;;;;5010840;28;20495;-72
2022/08/01 04:45:43;;;;;;;4.97;2.28;;;18.00;99.90;;;;;;4992792;28;20046;-71
2022/08/01 04:48:10;;;;;;;4.63;2.60;;;18.10;99.90;;;;;;4988821;28;20820;-70
2022/08/01 04:50:36;;;;;;;3.83;2.28;;;18.10;99.90;;;;;;5004419;28;20092;-70
2022/08/01 04:53:02;;;;;;;6.10;2.40;;;18.20;99.90;;;;;;5002095;28;20048;-72
2022/08/01 04:55:28;;;;;;;3.28;1.95;;;18.20;99.90;;;;;;5000643;28;20121;-72
2022/08/01 04:57:54;;;;;;;4.10;2.25;;;18.20;99.90;;;;;;5001424;28;20120;-71
2022/08/01 05:00:20;;;;;;;4.63;2.05;;;18.30;99.90;;;;;;5000939;28;20326;-72
2022/08/01 05:02:46;;;;;;;6.03;2.15;;;18.30;99.90;;;;;;5000287;28;20057;-71
2022/08/01 05:05:12;;;;;;;6.50;2.80;;;18.30;99.90;;;;;;5000314;28;20045;-71
2022/08/01 05:07:37;;;;;;;4.05;2.13;;;18.40;99.90;;;;;;4999342;28;20042;-72
2022/08/01 05:10:05;;;;;;;6.95;2.53;;;18.40;99.90;;;;;;5002044;28;20136;-70
2022/08/01 05:12:31;;;;;;;4.45;1.92;;;18.40;99.90;;;;;;5002854;28;20167;-71
2022/08/01 05:14:57;;;;;;;3.10;2.20;;;18.40;99.90;;;;;;5003809;28;20038;-71
2022/08/01 05:17:23;;;;;;;5.47;1.70;;;18.40;99.90;;;;;;5010840;28;20049;-71
2022/08/01 05:19:49;;;;;;;4.32;1.55;;;18.40;99.90;;;;;;5010542;28;20038;-71
2022/08/01 05:22:14;;;;;;;3.00;1.20;;;18.40;99.90;;;;;;5012234;28;20173;-72
2022/08/01 05:24:40;;;;;;;2.72;1.15;;;18.40;99.90;;;;;;5006000;28;20038;-72
2022/08/01 05:27:07;;;;;;;2.03;1.00;;;18.40;99.90;;;;;;5009909;28;20047;-71
2022/08/01 05:29:34;;;;;;;2.08;0.80;;;18.40;99.90;;;;;;5004525;28;20759;-71
2022/08/01 05:31:59;;;;;;;5.22;0.98;;;18.40;99.90;;;;;;5004627;28;20210;-71
2022/08/01 05:34:25;;;;;;;1.30;0.65;;;18.50;99.90;;;;;;5003354;28;20533;-72
2022/08/01 05:36:51;;;;;;;2.92;1.00;;;18.40;99.90;;;;;;5006076;28;20037;-72
2022/08/01 05:39:16;;;;;;;5.00;1.17;;;18.50;99.90;;;;;;5003476;28;20068;-71
2022/08/01 05:41:42;;;;;;;2.88;1.02;;;18.50;99.90;;;;;;5003595;28;20034;-70
2022/08/01 05:44:08;;;;;;;2.60;0.50;;;18.50;99.90;;;;;;5005046;28;20044;-71
2022/08/01 05:46:34;;;;;;;1.05;0.50;;;18.60;99.90;;;;;;5002443;28;20520;-73
2022/08/01 05:49:02;;;;;;;1.05;0.57;;;18.60;99.90;;;;;;4996636;28;20437;-71
2022/08/01 05:51:27;;;;;;;2.40;0.82;;;18.70;99.90;;;;;;5000286;28;20936;-71
2022/08/01 05:53:53;;;;;;;2.80;1.00;;;18.70;99.90;;;;;;5001623;28;20049;-71
2022/08/01 05:56:19;;;;;;;0.80;0.73;;;18.80;99.90;;;;;;5002606;28;20045;-72
2022/08/01 05:58:45;;;;;;;3.38;0.88;;;18.80;99.90;;;;;;5003705;28;20049;-72
2022/08/01 06:01:11;;;;;;;3.75;1.25;;;18.80;99.90;;;;;;5001633;28;20040;-71
2022/08/01 06:03:37;;;;;;;2.45;0.80;;;18.90;99.90;;;;;;5004428;28;20556;-70
2022/08/01 06:06:03;;;;;;;1.27;0.68;;;18.90;99.90;;;;;;5002647;28;20064;-70
2022/08/01 06:08:29;;;;;;;2.92;0.82;;;18.90;99.90;;;;;;5002372;28;20038;-70
2022/08/01 06:10:54;;;;;;;2.28;0.70;;;18.90;99.90;;;;;;5001161;28;20089;-69
2022/08/01 06:13:20;;;;;;;3.05;0.90;;;19.00;99.90;;;;;;5003879;28;20115;-71
2022/08/01 06:15:46;;;;;;;3.40;0.80;;;19.00;99.90;;;;;;5004633;28;20034;-71
2022/08/01 06:18:12;;;;;;;3.25;0.90;;;19.00;99.90;;;;;;5004990;28;20030;-72
2022/08/01 06:20:38;;;;;;;4.32;1.20;;;19.00;99.90;;;;;;5002161;28;20540;-71
2022/08/01 06:23:04;;;;;;;2.35;0.80;;;19.10;99.90;;;;;;5003973;28;20129;-71
2022/08/01 06:25:30;;;;;;;4.60;1.15;;;19.10;99.90;;;;;;5006769;28;20108;-71
2022/08/01 06:27:55;;;;;;;3.65;1.05;;;19.10;99.90;;;;;;5004966;28;20509;-70
2022/08/01 06:30:21;;;;;;;4.07;0.85;;;19.20;99.90;;;;;;5003557;28;20041;-69
2022/08/01 06:32:47;;;;;;;3.65;1.35;;;19.20;99.90;;;;;;5002119;28;20082;-69
2022/08/01 06:35:13;;;;;;;4.65;0.70;;;19.20;99.90;;;;;;5003350;28;20437;-72
2022/08/01 06:37:39;;;;;;;3.83;0.80;;;19.20;99.90;;;;;;5000939;28;20451;-71
2022/08/01 06:40:07;;;;;;;6.05;1.13;;;19.20;99.90;;;;;;5001895;28;20038;-71
2022/08/01 06:42:36;;;;;;;4.70;0.90;;;19.20;99.90;;;;;;5003760;28;20042;-69
2022/08/01 06:45:06;;;;;;;5.90;1.10;;;19.20;99.90;;;;;;5002082;28;20136;-71
2022/08/01 06:47:31;;;;;;;5.80;1.73;;;19.20;99.90;;;;;;5003704;28;20064;-72
2022/08/01 06:49:57;;;;;;;10.27;1.30;;;19.20;99.90;;;;;;5001410;28;20510;-71
2022/08/01 06:52:23;;;;;;;7.72;1.10;;;19.10;99.90;;;;;;5008552;28;20804;-71
2022/08/01 06:54:48;;;;;;;11.88;1.30;;;19.10;99.90;;;;;;5007751;28;20041;-70
2022/08/01 06:57:14;;;;;;;8.20;1.02;;;19.00;99.90;;;;;;5009735;28;20037;-71
2022/08/01 06:59:40;;;;;;;4.60;1.00;;;19.00;99.90;;;;;;5004021;28;20125;-69
2022/08/01 07:02:06;;;;;;;5.75;1.00;;;19.00;99.90;;;;;;5002975;28;20265;-71
2022/08/01 07:04:32;;;;;;;8.25;1.55;;;19.10;99.90;;;;;;5001797;28;20042;-71
2022/08/01 07:06:57;;;;;;;6.55;1.10;;;19.10;99.90;;;;;;5002939;28;20041;-71
2022/08/01 07:09:23;;;;;;;8.60;1.55;;;19.20;99.90;;;;;;5005218;28;20045;-71
2022/08/01 07:11:50;;;;;;;4.97;0.98;;;19.30;99.90;;;;;;5000006;28;20387;-70
2022/08/01 07:14:15;;;;;;;12.45;2.22;;;19.50;99.90;;;;;;5002378;28;20402;-71
2022/08/01 07:16:41;;;;;;;3.75;1.33;;;19.60;99.90;;;;;;5000996;28;20041;-71
2022/08/01 07:19:07;;;;;;;5.18;1.13;;;19.70;99.90;;;;;;5002629;28;20049;-73
2022/08/01 07:21:33;;;;;;;7.93;1.67;;;19.80;99.90;;;;;;5005044;28;20038;-69
2022/08/01 07:23:59;;;;;;;7.05;0.70;;;19.80;99.90;;;;;;4999733;28;20049;-69
2022/08/01 07:26:24;;;;;;;5.07;1.10;;;19.80;99.90;;;;;;5002257;28;20042;-71
2022/08/01 07:28:50;;;;;;;8.18;1.10;;;19.70;99.90;;;;;;5001651;28;20030;-71
2022/08/01 07:31:15;;;;;;;5.40;1.30;;;19.80;99.90;;;;;;5003245;28;20037;-72
2022/08/01 07:33:41;;;;;;;7.05;0.98;;;19.80;99.90;;;;;;5002701;28;20034;-71
2022/08/01 07:36:07;;;;;;;8.85;0.70;;;19.70;99.90;;;;;;5002366;28;20026;-71
2022/08/01 07:38:32;;;;;;;9.35;1.10;;;19.70;99.90;;;;;;5002914;28;20048;-71
2022/08/01 07:40:58;;;;;;;10.43;1.10;;;19.80;99.90;;;;;;5001290;28;20096;-69
2022/08/01 07:43:23;;;;;;;3.20;0.50;;;19.80;99.90;;;;;;5003408;28;20461;-69
2022/08/01 07:45:49;;;;;;;8.40;1.33;;;20.10;99.90;;;;;;5001418;28;20037;-70
2022/08/01 07:48:14;;;;;;;2.65;0.50;;;20.50;99.90;;;;;;5003142;28;20038;-71
2022/08/01 07:50:40;;;;;;;4.88;1.38;;;20.90;99.90;;;;;;5002201;28;20125;-69
2022/08/01 07:53:06;;;;;;;10.73;1.45;;;21.20;99.90;;;;;;4999778;28;20026;-71
2022/08/01 07:55:31;;;;;;;5.10;0.95;;;21.50;99.90;;;;;;5001212;28;20033;-71
2022/08/01 07:57:57;;;;;;;5.15;0.70;;;21.60;99.90;;;;;;5001504;28;20088;-70
2022/08/01 08:00:23;;;;;;;10.00;1.38;;;21.50;99.90;;;;;;4999601;28;20038;-72
2022/08/01 08:02:48;;;;;;;8.75;0.90;;;21.50;99.90;;;;;;5000824;28;20034;-69
2022/08/01 08:05:14;;;;;;;6.82;0.63;;;21.40;99.90;;;;;;5000600;28;20038;-71
2022/08/01 08:07:40;;;;;;;5.57;1.08;;;21.30;99.90;;;;;;4998704;28;20120;-70
2022/08/01 08:10:06;;;;;;;8.48;1.42;;;21.30;99.90;;;;;;5001476;28;20030;-70
2022/08/01 08:12:32;;;;;;;9.40;1.30;;;21.30;99.90;;;;;;4999323;28;20502;-70
2022/08/01 08:15:01;;;;;;;5.90;0.80;;;21.40;99.90;;;;;;5001039;28;20042;-71
2022/08/01 08:17:27;;;;;;;2.58;0.63;;;21.30;99.90;;;;;;5001559;28;20149;-69
2022/08/01 08:19:53;;;;;;;6.90;1.20;;;21.30;99.90;;;;;;5001514;28;20041;-70
2022/08/01 08:22:19;;;;;;;5.93;0.85;;;21.40;99.90;;;;;;5000109;28;20038;-69
2022/08/01 08:24:45;;;;;;;4.47;0.77;;;21.40;99.90;;;;;;4997733;28;20061;-71
2022/08/01 08:27:11;;;;;;;7.97;1.02;;;21.50;99.90;;;;;;5003242;28;20095;-69
2022/08/01 08:29:36;;;;;;;6.70;1.45;;;21.50;99.90;;;;;;5001361;28;20030;-70
2022/08/01 08:32:03;;;;;;;5.88;0.90;;;21.50;99.90;;;;;;4999999;28;20038;-72
2022/08/01 08:34:29;;;;;;;4.00;0.40;;;21.60;99.90;;;;;;4999385;28;20469;-68
2022/08/01 08:36:56;;;;;;;4.88;1.27;;;21.60;99.90;;;;;;5001365;28;20030;-68
2022/08/01 08:39:22;;;;;;;9.07;0.95;;;21.50;99.90;;;;;;4999763;28;20069;-72
2022/08/01 08:41:48;;;;;;;3.30;0.75;;;21.60;99.90;;;;;;4998357;28;20068;-69
2022/08/01 08:44:14;;;;;;;5.15;1.02;;;21.60;99.90;;;;;;4999313;28;20117;-69
2022/08/01 08:46:46;;;;;;;6.82;1.00;;;21.60;99.90;;;;;;4999464;28;20070;-68
2022/08/01 08:49:17;;;;;;;1.10;0.30;;;21.60;99.90;;;;;;5001338;28;20048;-67
2022/08/01 08:51:46;;;;;;;1.33;0.30;;;21.50;99.90;;;;;;5000159;28;20057;-69
2022/08/01 08:54:13;;;;;;;2.72;0.50;;;21.60;99.90;;;;;;5000678;28;20038;-69
2022/08/01 08:56:40;;;;;;;4.90;0.75;;;21.60;99.90;;;;;;4999796;28;20061;-72
2022/08/01 08:59:05;;;;;;;4.53;0.75;;;21.60;99.90;;;;;;5001297;28;21065;-69
2022/08/01 09:01:35;;;;;;;5.90;1.77;;;21.60;99.90;;;;;;5001359;28;20518;-69
2022/08/01 09:04:05;;;;;;;6.90;0.80;;;21.50;99.90;;;;;;4999413;28;20022;-70
2022/08/01 09:06:33;;;;;;;6.38;1.23;;;21.60;99.90;;;;;;4999272;28;20042;-70
2022/08/01 09:08:59;;;;;;;3.83;0.65;;;21.60;99.90;;;;;;4992379;28;20038;-69
2022/08/01 09:11:25;;;;;;;3.17;1.10;;;21.60;99.90;;;;;;5000450;28;20069;-69
2022/08/01 09:14:11;;;;;;;3.78;0.65;;;21.70;99.90;;;;;;4995653;28;20061;-70
2022/08/01 09:16:43;;;;;;;2.72;0.80;;;21.70;99.90;;;;;;4993277;28;20049;-70
2022/08/01 09:19:09;;;;;;;5.70;0.93;;;21.80;99.90;;;;;;4996014;28;20512;-70
2022/08/01 09:21:35;;;;;;;2.50;0.60;;;21.70;99.90;;;;;;4997485;28;20576;-70
2022/08/01 09:24:05;;;;;;;5.10;0.82;;;21.50;99.90;;;;;;4995543;28;20054;-69
2022/08/01 09:26:36;;;;;;;3.17;0.50;;;21.30;99.90;;;;;;4998131;28;20088;-69
2022/08/01 09:29:05;;;;;;;4.10;0.35;;;21.30;99.90;;;;;;4991881;28;20042;-70
2022/08/01 09:31:40;;;;;;;4.10;0.82;;;21.30;99.90;;;;;;4996051;28;20041;-70
2022/08/01 09:34:07;;;;;;;5.82;1.77;;;21.30;99.90;;;;;;4994158;28;20042;-68
2022/08/01 09:36:55;;;;;;;4.88;1.00;;;21.20;99.90;;;;;;4996734;28;20034;-69
2022/08/01 09:39:29;;;;;;;5.65;1.23;;;21.30;99.90;;;;;;4995707;28;20038;-69
2022/08/01 09:41:56;;;;;;;6.25;0.80;;;21.40;99.90;;;;;;4998254;28;20046;-72
2022/08/01 09:44:42;;;;;;;3.85;0.90;;;21.40;99.90;;;;;;4998729;28;20045;-68
2022/08/01 09:47:08;;;;;;;5.60;1.30;;;21.60;99.90;;;;;;4999277;28;20045;-69
2022/08/01 09:49:36;;;;;;;2.38;0.50;;;21.60;99.90;;;;;;5001114;28;20045;-70
2022/08/01 09:52:19;;;;;;;6.43;1.02;;;21.70;99.90;;;;;;5000178;28;20461;-70
2022/08/01 09:54:59;;;;;;;5.75;0.82;;;21.70;99.90;;;;;;4995328;28;20034;-69
2022/08/01 09:57:25;;;;;;;4.18;1.20;;;21.80;99.90;;;;;;4999975;28;20058;-68
2022/08/01 09:59:53;;;;;;;6.72;0.88;;;21.90;99.90;;;;;;5007533;28;20041;-70
2022/08/01 10:02:37;;;;;;;8.68;1.10;;;22.00;99.90;;;;;;5008787;28;20057;-69
2022/08/01 10:05:05;;;;;;;2.92;0.43;;;22.10;99.90;;;;;;5009006;28;20450;-72
2022/08/01 10:07:31;;;;;;;3.45;0.70;;;22.20;99.90;;;;;;5009293;28;20061;-69
2022/08/01 10:10:13;;;;;;;8.30;0.95;;;22.30;99.90;;;;;;5008637;28;20053;-71
2022/08/01 10:12:40;;;;;;;7.60;1.48;;;22.30;99.90;;;;;;5005195;28;20590;-71
2022/08/01 10:15:07;;;;;;;4.72;1.58;;;22.50;99.90;;;;;;5003865;28;20069;-70
2022/08/01 10:17:36;;;;;;;4.07;0.80;;;22.60;99.90;;;;;;5002272;28;20037;-69
2022/08/01 10:20:03;;;;;;;3.13;0.90;;;22.60;99.90;;;;;;5002433;28;20397;-68
2022/08/01 10:22:30;;;;;;;5.70;0.47;;;22.60;99.90;;;;;;5001938;28;20088;-69
2022/08/01 10:24:58;;;;;;;3.97;0.77;;;22.70;99.90;;;;;;5000787;28;20030;-70
2022/08/01 10:27:25;;;;;;;4.75;0.90;;;22.70;99.90;;;;;;5003439;28;20355;-70
2022/08/01 10:29:56;;;;;;;4.03;0.88;;;22.70;99.90;;;;;;5002458;28;20125;-71
2022/08/01 10:32:22;;;;;;;3.92;1.02;;;22.80;99.90;;;;;;5003627;28;20136;-70
2022/08/01 10:34:49;;;;;;;4.03;0.68;;;22.80;99.90;;;;;;4999705;28;20095;-69
2022/08/01 10:37:17;;;;;;;6.22;1.13;;;23.00;99.90;;;;;;5003301;28;20041;-70
2022/08/01 10:39:43;;;;;;;5.78;0.88;;;23.00;99.90;;;;;;4999514;28;20745;-70
2022/08/01 10:42:12;;;;;;;4.18;1.08;;;23.10;99.90;;;;;;5003442;28;20117;-69
2022/08/01 10:44:38;;;;;;;7.53;0.80;;;23.10;99.90;;;;;;4999177;28;20789;-70
2022/08/01 10:47:11;;;;;;;4.20;0.52;;;23.20;99.90;;;;;;4999842;28;20034;-71
2022/08/01 10:49:49;;;;;;;9.65;1.35;;;23.20;99.90;;;;;;4996794;28;20049;-72
2022/08/01 10:52:16;;;;;;;3.05;0.77;;;23.10;99.90;;;;;;5000110;28;20068;-71
2022/08/01 10:54:41;;;;;;;3.15;0.63;;;23.20;99.90;;;;;;4997930;28;20042;-68
2022/08/01 10:57:07;;;;;;;3.63;1.02;;;23.30;99.90;;;;;;5000083;28;20206;-71
2022/08/01 10:59:39;;;;;;;5.18;0.80;;;23.30;99.90;;;;;;4999003;28;20038;-71
2022/08/01 11:02:05;;;;;;;8.90;1.30;;;23.40;99.90;;;;;;5002857;28;20029;-70
2022/08/01 11:04:54;;;;;;;6.35;0.77;;;23.40;99.90;;;;;;5000230;28;20038;-71
2022/08/01 11:07:37;;;;;;;2.63;0.90;;;23.50;99.90;;;;;;4999975;28;20048;-71
2022/08/01 11:10:09;;;;;;;3.63;0.60;;;23.50;99.90;;;;;;5003480;28;20034;-70
2022/08/01 11:12:40;;;;;;;4.05;1.17;;;23.50;99.90;;;;;;4999368;28;20034;-68
2022/08/01 11:15:07;;;;;;;3.20;0.57;;;23.50;99.90;;;;;;5001953;28;21672;-69
2022/08/01 11:17:50;;;;;;;2.55;0.75;;;23.40;99.90;;;;;;5002261;28;20124;-71
2022/08/01 11:20:33;;;;;;;5.85;0.90;;;23.50;99.90;;;;;;5002103;28;20495;-69
2022/08/01 11:23:01;;;;;;;2.90;0.60;;;23.50;99.90;;;;;;4999061;28;20037;-70
2022/08/01 11:25:36;;;;;;;4.35;1.42;;;23.50;99.90;;;;;;5003504;28;20033;-71
2022/08/01 11:28:16;;;;;;;4.03;1.20;;;23.50;99.90;;;;;;5001100;28;20061;-71
2022/08/01 11:30:45;;;;;;;3.92;0.75;;;23.40;99.90;;;;;;5001737;28;20789;-70
2022/08/01 11:33:12;;;;;;;4.60;1.02;;;23.40;99.90;;;;;;5000632;28;20476;-69
2022/08/01 11:36:10;;;;;;;3.42;0.75;;;23.40;99.90;;;;;;5000009;28;20449;-71
2022/08/01 11:38:36;;;;;;;6.43;0.93;;;23.50;99.90;;;;;;5002074;28;20136;-71
2022/08/01 11:41:21;;;;;;;4.93;0.55;;;23.50;99.90;;;;;;5001306;28;20604;-69
2022/08/01 11:44:03;;;;;;;3.70;0.60;;;23.60;99.00;;;;;;5001252;28;20038;-70
2022/08/01 11:46:47;;;;;;;2.97;0.68;;;23.50;99.40;;;;;;5003079;28;20111;-70
2022/08/01 11:49:28;;;;;;;5.80;0.68;;;23.60;98.40;;;;;;4998350;28;20033;-69
2022/08/01 11:52:01;;;;;;;5.90;0.73;;;23.40;97.20;;;;;;5000320;28;20426;-69
2022/08/01 11:54:29;;;;;;;1.02;0.40;;;23.40;97.20;;;;;;5003091;28;20128;-70
2022/08/01 11:56:59;;;;;;;4.03;0.70;;;23.20;96.90;;;;;;5001920;28;20041;-68
2022/08/01 11:59:26;;;;;;;2.60;0.80;;;23.30;97.00;;;;;;5002012;28;20065;-71
2022/08/01 12:01:52;;;;;;;2.13;0.63;;;23.30;96.40;;;;;;5001519;28;20828;-71
2022/08/01 12:04:18;;;;;;;3.05;0.68;;;23.30;97.70;;;;;;5001390;28;20829;-70
2022/08/01 12:06:44;;;;;;;2.17;0.35;;;23.30;96.60;;;;;;5001354;28;20092;-69
2022/08/01 12:09:23;;;;;;;5.43;0.57;;;23.30;97.30;;;;;;5002747;28;20478;-69
2022/08/01 12:11:49;;;;;;;2.60;0.45;;;23.20;94.60;;;;;;4997403;28;20133;-69
2022/08/01 12:14:21;;;;;;;3.92;0.65;;;23.20;96.20;;;;;;5000393;28;20117;-70
2022/08/01 12:16:53;;;;;;;1.75;0.30;;;23.20;97.00;;;;;;5000840;28;20042;-70
2022/08/01 12:19:24;;;;;;;0.75;0.25;;;23.30;95.20;;;;;;5000504;28;20045;-70
2022/08/01 12:22:13;;;;;;;3.22;0.45;;;23.20;93.70;;;;;;4999332;28;20517;-70
2022/08/01 12:24:40;;;;;;;3.90;0.53;;;23.10;94.30;;;;;;4998531;28;20037;-69
2022/08/01 12:27:07;;;;;;;1.30;0.22;;;23.20;95.40;;;;;;5001596;28;20340;-71
2022/08/01 12:29:41;;;;;;;1.27;0.30;;;23.00;95.50;;;;;;5000499;28;20065;-71
2022/08/01 12:32:24;;;;;;;5.07;0.85;;;23.00;94.80;;;;;;4997512;28;20058;-71
2022/08/01 12:34:51;;;;;;;4.82;1.30;;;23.10;95.10;;;;;;4997953;28;20029;-71
2022/08/01 12:37:18;;;;;;;1.50;0.20;;;23.10;94.00;;;;;;4998124;28;20147;-70
2022/08/01 12:39:44;;;;;;;1.33;0.13;;;23.10;92.80;;;;;;4998858;28;20034;-72
2022/08/01 12:42:10;;;;;;;3.63;0.47;;;23.10;93.30;;;;;;5000681;28;20069;-72
2022/08/01 12:44:38;;;;;;;1.45;0.43;;;23.10;93.00;;;;;;4999819;28;20034;-70
2022/08/01 12:47:07;;;;;;;1.15;0.25;;;23.10;92.70;;;;;;4998682;28;20056;-71
2022/08/01 12:49:36;;;;;;;2.83;0.70;;;23.10;92.80;;;;;;4997605;28;20041;-69
2022/08/01 12:52:03;;;;;;;5.47;0.55;;;23.10;92.30;;;;;;4998656;28;20630;-71
2022/08/01 12:54:28;;;;;;;1.20;0.22;;;23.10;91.00;;;;;;4998969;28;20085;-71
2022/08/01 12:56:54;;;;;;;1.20;0.40;;;23.00;91.40;;;;;;5000290;28;20117;-71